Bryant, Wisconsin
Current Conditions -  °F | °C
As of 6:15 PM on Tuesday 25 Nov 2014 (Local Time) from KAIG Reporting Station
Clear Clear  
Wind Chill: -4°   Ceiling: Unl
Heat Index:   Visibility: 10mi
Dew Point:   Wind: 6mph
Humidity: 94%   Direction: 230°SW
Pressure: 30.03"   Gusts: NA
Location:  45.21°N, 89.02°W
Report Text: KAIG 260015Z AUTO 23005KT 10SM CLR M14/M15 A3003 RMK AO2 T11441152
Loading
Personal Weather Stations






























Interactive Weather Map New forecast layout! Learn more

10-Day Weather Forecast

Advertisements
Track Severe Weather on mobile